createdAt,value
2022-08-28T00:01:20.981Z,2.67
2022-08-28T00:04:24.410Z,1.33
2022-08-28T00:07:27.464Z,1.40
2022-08-28T00:10:30.563Z,0.98
2022-08-28T00:13:33.262Z,1.23
2022-08-28T00:16:36.683Z,1.40
2022-08-28T00:19:39.436Z,2.00
2022-08-28T00:22:42.506Z,1.40
2022-08-28T00:25:45.207Z,1.25
2022-08-28T00:28:48.220Z,1.62
2022-08-28T00:31:51.491Z,1.35
2022-08-28T00:34:54.489Z,1.77
2022-08-28T00:37:57.609Z,1.50
2022-08-28T00:41:03.928Z,1.37
2022-08-28T00:44:20.553Z,1.30
2022-08-28T00:47:25.171Z,1.12
2022-08-28T00:50:52.474Z,1.58
2022-08-28T00:53:58.973Z,1.63
2022-08-28T00:57:07.381Z,1.35
2022-08-28T01:00:19.820Z,2.85
2022-08-28T01:03:25.067Z,1.17
2022-08-28T01:06:29.581Z,0.82
2022-08-28T01:09:33.678Z,1.17
2022-08-28T01:12:37.168Z,1.52
2022-08-28T01:15:42.212Z,1.23
2022-08-28T01:18:46.518Z,2.45
2022-08-28T01:22:19.451Z,1.70
2022-08-28T01:25:24.763Z,1.77
2022-08-28T01:28:28.023Z,1.27
2022-08-28T01:31:32.148Z,1.10
2022-08-28T01:34:35.420Z,1.67
2022-08-28T01:37:40.452Z,1.35
2022-08-28T01:40:46.652Z,1.63
2022-08-28T01:43:50.812Z,1.02
2022-08-28T01:46:56.420Z,1.55
2022-08-28T01:49:59.831Z,0.90
2022-08-28T01:53:05.015Z,1.37
2022-08-28T01:56:13.730Z,1.13
2022-08-28T01:59:16.405Z,1.70
2022-08-28T02:02:19.473Z,1.37
2022-08-28T02:05:28.340Z,1.55
2022-08-28T02:08:30.927Z,1.35
2022-08-28T02:11:34.311Z,1.57
2022-08-28T02:14:37.079Z,1.45
2022-08-28T02:17:40.124Z,1.80
2022-08-28T02:20:43.045Z,1.60
2022-08-28T02:23:47.692Z,1.42
2022-08-28T02:26:50.270Z,1.27
2022-08-28T02:29:53.332Z,0.95
2022-08-28T02:32:56.535Z,1.10
2022-08-28T02:35:59.532Z,1.25
2022-08-28T02:39:02.381Z,2.22
2022-08-28T02:42:05.927Z,1.43
2022-08-28T02:45:11.809Z,1.60
2022-08-28T02:48:16.715Z,1.58
2022-08-28T02:51:23.137Z,1.35
2022-08-28T02:54:29.552Z,1.55
2022-08-28T02:57:32.391Z,1.57
2022-08-28T03:00:35.564Z,1.62
2022-08-28T03:03:41.349Z,1.55
2022-08-28T03:06:44.721Z,1.27
2022-08-28T03:09:47.387Z,1.33
2022-08-28T03:12:50.339Z,2.27
2022-08-28T03:15:52.969Z,0.90
2022-08-28T03:18:59.142Z,1.62
2022-08-28T03:22:01.920Z,1.25
2022-08-28T03:25:06.203Z,0.98
2022-08-28T03:28:08.865Z,1.27
2022-08-28T03:31:18.140Z,1.67
2022-08-28T03:34:21.124Z,1.55
2022-08-28T03:37:24.273Z,1.42
2022-08-28T03:40:27.197Z,1.12
2022-08-28T03:43:30.403Z,1.70
2022-08-28T03:46:33.938Z,0.85
2022-08-28T03:49:36.923Z,1.80
2022-08-28T03:52:40.974Z,1.17
2022-08-28T03:55:44.457Z,1.40
2022-08-28T03:58:47.741Z,2.10
2022-08-28T04:01:50.773Z,1.45
2022-08-28T04:04:53.831Z,2.17
2022-08-28T04:07:56.484Z,1.58
2022-08-28T04:11:00.968Z,1.65
2022-08-28T04:14:03.820Z,1.13
2022-08-28T04:17:07.202Z,1.33
2022-08-28T04:20:11.123Z,1.08
2022-08-28T04:23:14.045Z,1.50
2022-08-28T04:26:20.599Z,1.45
2022-08-28T04:29:23.807Z,2.00
2022-08-28T04:32:26.715Z,1.55
2022-08-28T04:35:29.698Z,1.23
2022-08-28T04:38:32.528Z,0.73
2022-08-28T04:41:37.604Z,0.90
2022-08-28T04:44:40.224Z,1.27
2022-08-28T04:47:43.408Z,1.85
2022-08-28T04:50:48.234Z,1.58
2022-08-28T04:53:51.208Z,1.85
2022-08-28T04:56:54.480Z,1.52
2022-08-28T04:59:58.812Z,2.40
2022-08-28T05:03:01.440Z,0.98
2022-08-28T05:06:04.711Z,1.58
2022-08-28T05:09:07.333Z,2.30
2022-08-28T05:12:16.012Z,1.17
2022-08-28T05:15:18.600Z,2.10
2022-08-28T05:18:23.927Z,1.65
2022-08-28T05:21:27.808Z,2.35
2022-08-28T05:24:30.755Z,2.03
2022-08-28T05:27:33.426Z,1.67
2022-08-28T05:30:37.772Z,1.93
2022-08-28T05:33:40.448Z,1.37
2022-08-28T05:36:43.444Z,2.10
2022-08-28T05:39:46.077Z,1.52
2022-08-28T05:42:49.919Z,1.75
2022-08-28T05:46:00.533Z,2.00
2022-08-28T05:49:09.088Z,2.45
2022-08-28T05:52:12.631Z,1.77
2022-08-28T05:55:19.051Z,2.22
2022-08-28T05:58:31.485Z,2.33
2022-08-28T06:01:39.822Z,3.00
2022-08-28T06:04:42.867Z,1.35
2022-08-28T06:07:45.784Z,1.58
2022-08-28T06:10:50.896Z,1.73
2022-08-28T06:13:53.737Z,1.50
2022-08-28T06:16:57.496Z,1.30
2022-08-28T06:20:00.151Z,1.17
2022-08-28T06:23:03.102Z,2.35
2022-08-28T06:26:07.118Z,1.85
2022-08-28T06:29:13.172Z,1.70
2022-08-28T06:32:15.912Z,1.80
2022-08-28T06:35:18.843Z,1.80
2022-08-28T06:38:24.717Z,1.45
2022-08-28T06:41:29.322Z,1.15
2022-08-28T06:44:32.903Z,2.05
2022-08-28T06:47:35.975Z,1.77
2022-08-28T06:50:41.057Z,1.58
2022-08-28T06:53:46.476Z,2.15
2022-08-28T06:56:49.811Z,1.55
2022-08-28T06:59:56.936Z,2.25
2022-08-28T07:03:00.003Z,2.17
2022-08-28T07:06:05.481Z,1.65
2022-08-28T07:09:13.392Z,1.65
2022-08-28T07:12:17.362Z,1.87
2022-08-28T07:15:20.319Z,2.05
2022-08-28T07:18:23.478Z,1.50
2022-08-28T07:21:27.056Z,1.73
2022-08-28T07:24:30.473Z,1.58
2022-08-28T07:27:33.567Z,2.50
2022-08-28T07:30:36.489Z,2.10
2022-08-28T07:33:40.927Z,2.47
2022-08-28T07:36:44.740Z,1.67
2022-08-28T07:39:47.503Z,1.87
2022-08-28T07:43:09.252Z,1.55
2022-08-28T07:46:12.312Z,1.52
2022-08-28T07:49:18.523Z,1.40
2022-08-28T07:52:21.163Z,1.55
2022-08-28T07:55:24.346Z,1.15
2022-08-28T07:58:27.083Z,0.90
2022-08-28T08:01:31.518Z,1.60
2022-08-28T08:04:35.235Z,2.07
2022-08-28T08:07:41.919Z,2.37
2022-08-28T08:11:06.403Z,2.10
2022-08-28T08:14:09.208Z,1.35
2022-08-28T08:17:12.218Z,1.77
2022-08-28T08:20:14.920Z,2.33
2022-08-28T08:23:18.020Z,1.75
2022-08-28T08:26:23.579Z,1.67
2022-08-28T08:29:27.964Z,1.77
2022-08-28T08:32:30.729Z,2.45
2022-08-28T08:35:33.732Z,2.27
2022-08-28T08:38:37.303Z,1.73
2022-08-28T08:41:40.254Z,2.42
2022-08-28T08:44:47.614Z,4.32
2022-08-28T08:47:52.655Z,2.22
2022-08-28T08:50:59.295Z,2.93
2022-08-28T08:54:21.546Z,2.40
2022-08-28T08:57:24.307Z,3.47
2022-08-28T09:00:31.470Z,2.10
2022-08-28T09:03:53.911Z,1.73
2022-08-28T09:07:01.755Z,1.73
2022-08-28T09:10:07.815Z,2.33
2022-08-28T09:13:31.437Z,2.28
2022-08-28T09:16:39.923Z,1.60
2022-08-28T09:19:42.945Z,2.12
2022-08-28T09:22:47.315Z,2.40
2022-08-28T09:25:59.601Z,2.80
2022-08-28T09:29:26.786Z,2.20
2022-08-28T09:32:29.656Z,2.78
2022-08-28T09:35:35.719Z,2.25
2022-08-28T09:38:39.142Z,3.00
2022-08-28T09:42:22.449Z,2.10
2022-08-28T09:45:29.021Z,2.53
2022-08-28T09:48:34.608Z,1.83
2022-08-28T09:51:39.850Z,2.10
2022-08-28T09:54:44.919Z,2.07
2022-08-28T09:57:48.072Z,2.50
2022-08-28T10:01:04.302Z,2.62
2022-08-28T10:04:27.507Z,2.72
2022-08-28T10:07:55.832Z,1.52
2022-08-28T10:11:16.600Z,2.90
2022-08-28T10:14:22.300Z,2.83
2022-08-28T10:17:40.741Z,2.42
2022-08-28T10:21:12.534Z,2.83
2022-08-28T10:24:28.309Z,2.17
2022-08-28T10:27:43.303Z,3.47
2022-08-28T10:31:06.588Z,2.70
2022-08-28T10:34:30.300Z,2.87
2022-08-28T10:37:56.450Z,2.95
2022-08-28T10:41:04.916Z,2.72
2022-08-28T10:44:11.252Z,2.17
2022-08-28T10:47:15.075Z,3.00
2022-08-28T10:50:26.811Z,2.92
2022-08-28T10:53:37.932Z,3.55
2022-08-28T10:56:46.616Z,3.30
2022-08-28T11:00:04.480Z,3.07
2022-08-28T11:03:33.211Z,2.87
2022-08-28T11:07:11.376Z,2.85
2022-08-28T11:10:29.222Z,2.90
2022-08-28T11:13:51.623Z,3.03
2022-08-28T11:17:00.056Z,2.07
2022-08-28T11:20:29.722Z,2.85
2022-08-28T11:23:59.842Z,2.83
2022-08-28T11:27:12.027Z,4.55
2022-08-28T11:30:32.852Z,2.40
2022-08-28T11:33:44.667Z,3.53
2022-08-28T11:36:47.660Z,2.80
2022-08-28T11:39:50.352Z,2.67
2022-08-28T11:43:16.945Z,3.78
2022-08-28T11:46:31.510Z,3.28
2022-08-28T11:49:34.548Z,3.47
2022-08-28T11:52:54.743Z,2.80
2022-08-28T11:56:28.348Z,3.40
2022-08-28T11:59:47.141Z,2.65
2022-08-28T12:02:55.625Z,3.50
2022-08-28T12:06:00.599Z,3.23
2022-08-28T12:09:04.315Z,2.45
2022-08-28T12:12:22.280Z,3.53
2022-08-28T12:15:27.902Z,1.98
2022-08-28T12:18:40.303Z,2.55
2022-08-28T12:21:43.832Z,1.87
2022-08-28T12:25:08.644Z,2.62
2022-08-28T12:28:22.759Z,2.97
2022-08-28T12:31:45.516Z,2.40
2022-08-28T12:35:08.493Z,2.53
2022-08-28T12:38:20.260Z,3.60
2022-08-28T12:41:24.635Z,3.22
2022-08-28T12:44:31.099Z,4.20
2022-08-28T12:47:35.901Z,2.55
2022-08-28T12:50:39.799Z,3.53
2022-08-28T12:53:48.271Z,3.57
2022-08-28T12:56:51.309Z,2.67
2022-08-28T12:59:55.923Z,2.50
2022-08-28T13:03:00.651Z,2.22
2022-08-28T13:06:06.610Z,3.30
2022-08-28T13:09:18.666Z,2.90
2022-08-28T13:12:54.404Z,2.78
2022-08-28T13:15:55.299Z,3.15
2022-08-28T13:19:06.772Z,3.03
2022-08-28T13:22:35.732Z,3.83
2022-08-28T13:25:38.460Z,3.37
2022-08-28T13:28:43.831Z,3.12
2022-08-28T13:31:57.251Z,3.70
2022-08-28T13:35:09.453Z,5.03
2022-08-28T13:38:16.073Z,3.35
2022-08-28T13:41:19.042Z,3.70
2022-08-28T13:44:24.311Z,3.65
2022-08-28T13:47:27.516Z,3.20
2022-08-28T13:50:30.659Z,3.42
2022-08-28T13:53:33.625Z,2.53
2022-08-28T13:56:36.344Z,3.00
2022-08-28T13:59:39.324Z,3.33
2022-08-28T14:03:01.035Z,2.80
2022-08-28T14:06:07.486Z,3.10
2022-08-28T14:09:15.133Z,3.00
2022-08-28T14:12:20.546Z,2.13
2022-08-28T14:15:23.240Z,3.33
2022-08-28T14:18:26.586Z,2.78
2022-08-28T14:21:29.356Z,2.17
2022-08-28T14:24:32.754Z,2.78
2022-08-28T14:27:35.993Z,2.57
2022-08-28T14:30:47.445Z,2.22
2022-08-28T14:33:50.189Z,2.97
2022-08-28T14:36:55.400Z,2.90
2022-08-28T14:39:58.031Z,3.40
2022-08-28T14:43:01.001Z,3.27
2022-08-28T14:46:05.502Z,2.60
2022-08-28T14:49:13.755Z,3.17
2022-08-28T14:52:16.400Z,2.20
2022-08-28T14:55:19.331Z,2.70
2022-08-28T14:58:22.037Z,2.60
2022-08-28T15:01:41.266Z,2.72
2022-08-28T15:04:43.953Z,2.78
2022-08-28T15:07:46.916Z,2.78
2022-08-28T15:10:51.131Z,3.05
2022-08-28T15:13:55.390Z,3.30
2022-08-28T15:16:58.190Z,3.10
2022-08-28T15:20:01.238Z,3.15
2022-08-28T15:23:03.874Z,2.20
2022-08-28T15:26:06.940Z,3.25
2022-08-28T15:29:11.912Z,2.93
2022-08-28T15:32:14.935Z,3.85
2022-08-28T15:35:17.639Z,3.35
2022-08-28T15:38:20.679Z,3.50
2022-08-28T15:41:26.371Z,3.47
2022-08-28T15:44:29.591Z,3.03
2022-08-28T15:47:32.185Z,2.55
2022-08-28T15:50:35.434Z,2.42
2022-08-28T15:53:39.270Z,2.62
2022-08-28T15:56:42.201Z,3.08
2022-08-28T15:59:50.156Z,3.10
2022-08-28T16:02:59.802Z,2.83
2022-08-28T16:06:03.680Z,2.90
2022-08-28T16:09:07.766Z,2.40
2022-08-28T16:12:10.719Z,3.05
2022-08-28T16:15:14.103Z,3.13
2022-08-28T16:18:23.337Z,2.95
2022-08-28T16:21:27.514Z,3.17
2022-08-28T16:24:31.228Z,2.90
2022-08-28T16:27:34.226Z,3.28
2022-08-28T16:30:43.779Z,2.67
2022-08-28T16:33:47.195Z,3.00
2022-08-28T16:36:50.608Z,1.70
2022-08-28T16:39:56.072Z,2.92
2022-08-28T16:42:59.172Z,3.37
2022-08-28T16:46:02.949Z,2.63
2022-08-28T16:49:05.843Z,2.90
2022-08-28T16:52:08.475Z,2.37
2022-08-28T16:55:12.280Z,2.75
2022-08-28T16:58:17.031Z,3.50
2022-08-28T17:01:24.117Z,3.17
2022-08-28T17:04:27.215Z,2.80
2022-08-28T17:07:30.699Z,2.70
2022-08-28T17:10:35.844Z,3.42
2022-08-28T17:13:39.546Z,2.30
2022-08-28T17:16:42.203Z,2.27
2022-08-28T17:19:45.195Z,2.20
2022-08-28T17:22:47.828Z,2.83
2022-08-28T17:25:51.016Z,3.08
2022-08-28T17:28:53.731Z,2.90
2022-08-28T17:31:56.819Z,3.13
2022-08-28T17:35:00.272Z,3.33
2022-08-28T17:38:03.481Z,2.75
2022-08-28T17:41:06.580Z,4.05
2022-08-28T17:44:10.274Z,2.70
2022-08-28T17:47:13.180Z,3.07
2022-08-28T17:50:16.396Z,2.67
2022-08-28T17:53:19.753Z,3.25
2022-08-28T17:56:22.796Z,3.47
2022-08-28T17:59:38.952Z,2.70
2022-08-28T18:02:42.918Z,2.80
2022-08-28T18:05:46.502Z,2.20
2022-08-28T18:08:51.794Z,2.62
2022-08-28T18:11:54.702Z,2.10
2022-08-28T18:14:57.419Z,1.80
2022-08-28T18:18:00.538Z,2.43
2022-08-28T18:21:03.146Z,2.25
2022-08-28T18:24:06.689Z,2.50
2022-08-28T18:27:09.512Z,1.90
2022-08-28T18:30:12.721Z,1.73
2022-08-28T18:33:17.734Z,2.10
2022-08-28T18:36:23.049Z,1.80
2022-08-28T18:39:29.830Z,2.42
2022-08-28T18:42:33.052Z,2.20
2022-08-28T18:45:36.240Z,1.92
2022-08-28T18:48:39.172Z,2.00
2022-08-28T18:51:43.503Z,2.37
2022-08-28T18:54:46.448Z,2.85
2022-08-28T18:57:50.177Z,2.78
2022-08-28T19:00:55.055Z,2.30
2022-08-28T19:03:57.773Z,2.30
2022-08-28T19:07:00.711Z,1.98
2022-08-28T19:10:04.900Z,2.08
2022-08-28T19:13:08.630Z,2.85
2022-08-28T19:16:17.037Z,1.87
2022-08-28T19:19:20.020Z,2.77
2022-08-28T19:22:22.824Z,3.05
2022-08-28T19:25:29.349Z,1.92
2022-08-28T19:28:33.466Z,1.83
2022-08-28T19:31:37.264Z,2.15
2022-08-28T19:34:39.975Z,1.73
2022-08-28T19:37:43.589Z,2.42
2022-08-28T19:40:46.298Z,2.00
2022-08-28T19:43:49.352Z,2.60
2022-08-28T19:46:54.233Z,2.08
2022-08-28T19:49:57.213Z,2.43
2022-08-28T19:52:59.911Z,2.15
2022-08-28T19:56:05.121Z,1.70
2022-08-28T19:59:09.041Z,1.98
2022-08-28T20:02:12.047Z,2.33
2022-08-28T20:05:15.764Z,1.97
2022-08-28T20:08:20.051Z,1.40
2022-08-28T20:11:30.393Z,2.08
2022-08-28T20:14:34.421Z,2.33
2022-08-28T20:17:43.948Z,1.83
2022-08-28T20:20:52.618Z,1.70
2022-08-28T20:23:55.597Z,2.12
2022-08-28T20:26:58.235Z,1.98
2022-08-28T20:30:07.162Z,2.00
2022-08-28T20:33:14.272Z,2.70
2022-08-28T20:36:21.134Z,2.00
2022-08-28T20:39:24.468Z,1.77
2022-08-28T20:42:31.646Z,2.80
2022-08-28T20:45:34.537Z,1.92
2022-08-28T20:48:38.098Z,2.50
2022-08-28T20:51:58.880Z,2.50
2022-08-28T20:55:02.818Z,1.95
2022-08-28T20:58:05.658Z,1.83
2022-08-28T21:01:08.750Z,1.85
2022-08-28T21:04:11.575Z,1.90
2022-08-28T21:07:17.127Z,2.10
2022-08-28T21:10:19.836Z,1.77
2022-08-28T21:13:23.377Z,2.05
2022-08-28T21:16:26.179Z,1.40
2022-08-28T21:19:30.252Z,1.80
2022-08-28T21:22:34.500Z,1.47
2022-08-28T21:25:41.398Z,1.70
2022-08-28T21:28:44.016Z,1.83
2022-08-28T21:31:49.487Z,1.70
2022-08-28T21:34:53.106Z,3.47
2022-08-28T21:37:56.078Z,1.53
2022-08-28T21:41:02.263Z,2.42
2022-08-28T21:44:06.091Z,1.95
2022-08-28T21:47:08.744Z,1.62
2022-08-28T21:50:12.379Z,1.42
2022-08-28T21:53:16.446Z,1.43
2022-08-28T21:56:26.867Z,1.83
2022-08-28T21:59:33.075Z,1.73
2022-08-28T22:02:40.757Z,1.55
2022-08-28T22:05:45.802Z,1.77
2022-08-28T22:08:48.720Z,1.53
2022-08-28T22:11:51.752Z,1.58
2022-08-28T22:14:54.360Z,1.65
2022-08-28T22:17:57.453Z,2.37
2022-08-28T22:21:19.461Z,1.87
2022-08-28T22:24:23.593Z,2.00
2022-08-28T22:27:26.412Z,1.60
2022-08-28T22:30:29.512Z,1.85
2022-08-28T22:33:32.994Z,1.58
2022-08-28T22:36:38.075Z,1.77
2022-08-28T22:39:42.471Z,1.83
2022-08-28T22:42:45.474Z,2.00
2022-08-28T22:45:48.914Z,2.10
2022-08-28T22:48:51.878Z,2.08
2022-08-28T22:51:54.558Z,1.52
2022-08-28T22:54:57.977Z,1.30
2022-08-28T22:58:01.022Z,1.05
2022-08-28T23:01:09.228Z,1.55
2022-08-28T23:04:12.166Z,1.42
2022-08-28T23:07:15.215Z,1.65
2022-08-28T23:10:18.700Z,1.33
2022-08-28T23:13:21.739Z,1.25
2022-08-28T23:16:24.552Z,1.45
2022-08-28T23:19:28.611Z,1.52
2022-08-28T23:22:33.468Z,1.17
2022-08-28T23:25:36.537Z,1.53
2022-08-28T23:28:39.741Z,1.17
2022-08-28T23:31:42.827Z,1.52
2022-08-28T23:34:45.520Z,1.45
2022-08-28T23:37:51.973Z,2.08
2022-08-28T23:40:55.101Z,2.33
2022-08-28T23:43:58.117Z,2.35
2022-08-28T23:47:00.823Z,1.87
2022-08-28T23:50:07.685Z,2.10
2022-08-28T23:53:10.696Z,1.42
2022-08-28T23:56:13.980Z,1.67
2022-08-28T23:59:16.687Z,1.30
